Details From HETR - EL TOR
To HEMA - MARSA ALAM INTL
Flight Number -
Tags generated
Created
Modified
Stats Distance 167 nm / 310 km
Max Altitude 17,500 ft / 5,334 m
Waypoints 5
Social Downloads 5
Likes 0
Share VATSIM

Download

Looking for another format? Having issues loading an existing format? Contact us
Advertisement - Login to hide

Notes

Basic altitude profile: - Ascent Rate: 2500ft/min - Ascent Speed: 250kts - Cruise Altitude: 35000ft - Cruise Speed: 420kts - Descent Rate: 1500ft/min - Descent Speed: 250kts Options: - Use NATs: yes - Use PACOTS: yes - Use low airways: yes - Use high airways: no

Route

HETR SOBEL V730 MAK HEMA

ID Type Via Altitude Latitude Longitude Leg Dist Tot Dist Heading (true) Name
O HETR APT - 0 ft / 0 m 28.20898˚ 33.64551˚ - 0 nm - EL TOR
SOBEL FIX - 17,500 ft / 5,334 m 26.86694˚ 34.16833˚ 85 nm 85 nm 161° / 161° -
LORAS FIX V730 (AWY-LO) 11,500 ft / 3,505 m 25.94694˚ 34.45389˚ 57 nm 142 nm 164° / 165° -
MAK VOR V730 (AWY-LO) 11,500 ft / 3,505 m 25.58278˚ 34.56556˚ 22 nm 165 nm 165° / 165° MARSA ALAM VOR-DME
O HEMA APT - 0 ft / 0 m 25.55711˚ 34.58371˚ 1 nm 167 nm 147° / 147° MARSA ALAM INTL

Altitude Profile

Advertisement - Login to hide

Weather


0- 5 10 15 20 25 30 35+ Temperature / ° C

Clouds and Precipitation
Forecast for 2017-12-16 12:00 UTC. Updated a few seconds ago

Ground ~20,000 ft ~40,000 ft Winds

HETR

Details ICAO HETR (ELT)
Name EL TOR
Region Egypt
Timezone Africa/Cairo (UTC+2.0)
Stats Elevation 115 ft / 35 m (AMSL)
Location 28.208982° 33.645505°
Runways 1
Magnetic Variation 4.298° E

METAR

HETR 160700Z 34004KT CAVOK 16/07 Q1022

Decode

TAF

Not found

Departure Runways

ID Width Length Bearing (true) Bearing (mag) Surface Threshold Offset Overrun Length
10 148 ft / 45 m 9,831 ft / 2,996 m 104.27° 99.97° Asphalt 0 ft / 0 m 210 ft / 64 m
28 148 ft / 45 m 9,831 ft / 2,996 m 284.28° 279.98° Asphalt 0 ft / 0 m 210 ft / 64 m

HEMA

Details ICAO HEMA (RMF)
Name MARSA ALAM INTL
Region Egypt
Timezone Africa/Cairo (UTC+2.0)
Stats Elevation 251 ft / 77 m (AMSL)
Location 25.557113° 34.583711°
Runways 1
Magnetic Variation 4.076° E

METAR

HEMA 160700Z 32015KT CAVOK 22/14 Q1020 NOSIG

Decode

TAF

Not found

Destination Runways

ID Width Length Bearing (true) Bearing (mag) Surface Threshold Offset Overrun Length
15 148 ft / 45 m 9,875 ft / 3,010 m 149.89° 145.81° Asphalt 0 ft / 0 m 295 ft / 90 m
33 148 ft / 45 m 9,875 ft / 3,010 m 329.90° 325.82° Asphalt 0 ft / 0 m 295 ft / 90 m

Popular Alternatives